createdAt,value
2024-02-12T00:02:53.470Z,0.98
2024-02-12T00:07:57.353Z,1.77
2024-02-12T00:13:02.317Z,3.33
2024-02-12T00:23:10.213Z,4.75
2024-02-12T00:28:16.440Z,2.30
2024-02-12T00:33:21.024Z,1.20
2024-02-12T00:38:24.498Z,0.93
2024-02-12T00:43:29.292Z,0.80
2024-02-12T00:48:33.529Z,0.90
2024-02-12T00:53:40.249Z,1.10
2024-02-12T00:58:46.321Z,1.00
2024-02-12T01:03:50.697Z,0.70
2024-02-12T01:08:55.644Z,0.53
2024-02-12T01:19:08.471Z,0.90
2024-02-12T01:24:15.072Z,1.00
2024-02-12T01:29:26.518Z,0.90
2024-02-12T01:34:31.670Z,0.90
2024-02-12T01:39:35.905Z,0.93
2024-02-12T01:44:52.140Z,1.03
2024-02-12T01:49:59.422Z,3.08
2024-02-12T01:55:06.540Z,1.42
2024-02-12T02:00:13.928Z,2.67
2024-02-12T02:05:17.889Z,1.13
2024-02-12T02:10:21.396Z,2.45
2024-02-12T02:15:27.016Z,1.30
2024-02-12T02:20:31.482Z,0.90
2024-02-12T02:25:36.342Z,1.27
2024-02-12T02:30:40.872Z,1.00
2024-02-12T02:35:46.000Z,1.27
2024-02-12T02:40:52.185Z,0.80
2024-02-12T02:45:57.292Z,0.98
2024-02-12T02:51:04.501Z,0.90
2024-02-12T02:56:11.279Z,0.63
2024-02-12T03:01:14.743Z,0.55
2024-02-12T03:06:18.290Z,0.77
2024-02-12T03:11:25.684Z,0.93
2024-02-12T03:16:29.184Z,0.77
2024-02-12T03:21:32.920Z,1.30
2024-02-12T03:26:37.892Z,1.48
2024-02-12T03:36:44.999Z,1.33
2024-02-12T03:41:49.784Z,1.05
2024-02-12T03:46:55.628Z,0.68
2024-02-12T03:52:16.399Z,0.95
2024-02-12T03:57:53.184Z,1.17
2024-02-12T04:02:57.524Z,0.70
2024-02-12T04:08:01.148Z,0.90
2024-02-12T04:13:06.821Z,0.88
2024-02-12T04:18:11.061Z,1.33
2024-02-12T04:23:16.988Z,1.13
2024-02-12T04:28:30.916Z,1.50
2024-02-12T04:33:36.335Z,1.15
2024-02-12T04:38:39.898Z,0.73
2024-02-12T04:43:46.477Z,1.15
2024-02-12T04:48:50.064Z,0.93
2024-02-12T04:53:54.438Z,0.77
2024-02-12T04:59:00.039Z,0.98
2024-02-12T05:04:05.452Z,1.13
2024-02-12T05:09:11.717Z,0.80
2024-02-12T05:14:16.643Z,0.93
2024-02-12T05:24:42.802Z,0.75
2024-02-12T05:29:47.683Z,1.35
2024-02-12T05:40:02.047Z,0.95
2024-02-12T05:45:11.340Z,1.50
2024-02-12T05:50:15.725Z,0.50
2024-02-12T05:55:20.735Z,0.75
2024-02-12T06:05:29.907Z,1.20
2024-02-12T06:10:37.325Z,2.03
2024-02-12T06:15:44.508Z,1.15
2024-02-12T06:20:49.148Z,1.00
2024-02-12T06:25:52.491Z,1.20
2024-02-12T06:30:57.404Z,1.10
2024-02-12T06:41:07.338Z,1.20
2024-02-12T06:46:12.153Z,1.23
2024-02-12T06:51:15.596Z,1.00
2024-02-12T06:56:21.049Z,1.30
2024-02-12T07:01:28.577Z,1.13
2024-02-12T07:06:32.595Z,1.38
2024-02-12T07:11:36.019Z,1.10
2024-02-12T07:16:41.452Z,0.70
2024-02-12T07:21:44.810Z,1.30
2024-02-12T07:26:48.268Z,0.60
2024-02-12T07:31:53.135Z,0.50
2024-02-12T07:42:05.975Z,0.65
2024-02-12T07:47:13.429Z,0.70
2024-02-12T07:52:17.731Z,0.50
2024-02-12T07:57:25.932Z,1.03
2024-02-12T08:02:32.748Z,0.50
2024-02-12T08:07:51.507Z,0.57
2024-02-12T08:13:02.673Z,0.90
2024-02-12T08:18:11.977Z,0.52
2024-02-12T08:23:19.126Z,0.70
2024-02-12T08:28:26.235Z,0.52
2024-02-12T08:33:32.648Z,0.60
2024-02-12T08:38:37.828Z,0.70
2024-02-12T08:43:42.958Z,0.80
2024-02-12T08:48:52.189Z,0.65
2024-02-12T08:54:00.071Z,0.40
2024-02-12T08:59:08.589Z,0.68
2024-02-12T09:04:14.498Z,0.68
2024-02-12T09:09:18.189Z,0.40
2024-02-12T09:14:22.274Z,0.63
2024-02-12T09:19:30.075Z,0.30
2024-02-12T09:24:35.016Z,0.63
2024-02-12T09:34:43.361Z,0.70
2024-02-12T09:39:47.199Z,0.60
2024-02-12T09:44:50.943Z,0.80
2024-02-12T09:49:59.057Z,0.82
2024-02-12T09:55:04.343Z,1.25
2024-02-12T10:00:09.560Z,0.95
2024-02-12T10:05:21.609Z,0.95
2024-02-12T10:10:25.576Z,0.90
2024-02-12T10:15:31.867Z,0.90
2024-02-12T10:20:38.150Z,1.63
2024-02-12T10:25:44.273Z,1.00
2024-02-12T10:30:48.874Z,1.20
2024-02-12T10:35:54.586Z,1.00
2024-02-12T10:41:06.051Z,1.30
2024-02-12T10:46:10.641Z,1.23
2024-02-12T10:51:16.579Z,1.52
2024-02-12T10:56:21.461Z,1.70
2024-02-12T11:01:25.245Z,1.02
2024-02-12T11:06:31.501Z,1.10
2024-02-12T11:11:34.904Z,1.10
2024-02-12T11:16:41.432Z,1.38
2024-02-12T11:21:46.263Z,0.50
2024-02-12T11:26:52.904Z,0.90
2024-02-12T11:31:57.525Z,1.30
2024-02-12T11:37:05.035Z,0.88
2024-02-12T11:42:12.026Z,1.20
2024-02-12T11:47:15.431Z,1.02
2024-02-12T11:52:21.424Z,0.77
2024-02-12T11:57:26.240Z,0.73
2024-02-12T12:02:29.720Z,0.60
2024-02-12T12:07:34.526Z,0.73
2024-02-12T12:12:40.110Z,0.60
2024-02-12T12:17:43.904Z,0.80
2024-02-12T12:22:49.792Z,0.65
2024-02-12T12:27:53.478Z,0.90
2024-02-12T12:32:58.292Z,1.20
2024-02-12T12:38:09.805Z,1.17
2024-02-12T12:43:14.817Z,1.30
2024-02-12T12:48:19.144Z,1.40
2024-02-12T12:53:23.964Z,1.30
2024-02-12T12:58:27.381Z,1.40
2024-02-12T13:08:37.235Z,1.25
2024-02-12T13:13:41.759Z,1.38
2024-02-12T13:18:47.008Z,1.48
2024-02-12T13:23:53.707Z,1.13
2024-02-12T13:28:57.125Z,0.88
2024-02-12T13:34:00.572Z,1.15
2024-02-12T13:44:09.673Z,0.90
2024-02-12T13:49:15.909Z,0.80
2024-02-12T13:54:22.387Z,0.80
2024-02-12T13:59:25.886Z,0.85
2024-02-12T14:09:33.727Z,1.65
2024-02-12T14:14:37.111Z,1.30
2024-02-12T14:19:45.159Z,1.20
2024-02-12T14:24:49.972Z,0.80
2024-02-12T14:29:53.320Z,1.33
2024-02-12T14:34:57.091Z,1.95
2024-02-12T14:40:02.277Z,1.45
2024-02-12T14:45:07.123Z,1.50
2024-02-12T14:50:13.511Z,1.60
2024-02-12T14:55:20.094Z,1.42
2024-02-12T15:00:25.616Z,1.30
2024-02-12T15:05:30.199Z,1.33
2024-02-12T15:10:36.957Z,1.60
2024-02-12T15:15:40.621Z,1.67
2024-02-12T15:20:44.047Z,1.45
2024-02-12T15:25:48.833Z,1.20
2024-02-12T15:30:53.360Z,1.15
2024-02-12T15:35:58.031Z,1.00
2024-02-12T15:41:03.137Z,1.17
2024-02-12T15:46:11.470Z,1.20
2024-02-12T15:51:15.394Z,0.95
2024-02-12T15:56:20.452Z,1.65
2024-02-12T16:01:26.975Z,0.93
2024-02-12T16:06:30.409Z,1.30
2024-02-12T16:11:35.265Z,1.20
2024-02-12T16:16:40.816Z,1.10
2024-02-12T16:21:45.949Z,1.30
2024-02-12T16:26:50.842Z,1.00
2024-02-12T16:31:54.339Z,1.67
2024-02-12T16:36:58.528Z,1.40
2024-02-12T16:42:03.375Z,1.00
2024-02-12T16:47:07.136Z,1.15
2024-02-12T16:52:11.957Z,1.60
2024-02-12T16:57:16.711Z,1.40
2024-02-12T17:02:20.755Z,2.05
2024-02-12T17:07:27.812Z,2.00
2024-02-12T17:12:32.993Z,1.33
2024-02-12T17:17:36.816Z,1.30
2024-02-12T17:22:40.832Z,1.53
2024-02-12T17:27:45.797Z,1.30
2024-02-12T17:32:49.453Z,1.30
2024-02-12T17:37:52.903Z,1.33
2024-02-12T17:42:58.175Z,2.15
2024-02-12T17:48:01.979Z,1.50
2024-02-12T17:53:05.888Z,2.00
2024-02-12T17:58:10.834Z,1.48
2024-02-12T18:03:14.316Z,1.75
2024-02-12T18:08:17.843Z,2.35
2024-02-12T18:13:22.659Z,1.67
2024-02-12T18:23:29.342Z,1.40
2024-02-12T18:28:34.598Z,1.80
2024-02-12T18:33:38.127Z,1.30
2024-02-12T18:38:41.505Z,1.80
2024-02-12T18:43:46.303Z,1.73
2024-02-12T18:53:58.941Z,2.42
2024-02-12T18:59:04.354Z,2.78
2024-02-12T19:04:07.914Z,3.05
2024-02-12T19:09:11.950Z,2.88
2024-02-12T19:14:17.273Z,2.43
2024-02-12T19:19:20.770Z,2.65
2024-02-12T19:24:24.544Z,2.50
2024-02-12T19:29:29.425Z,2.15
2024-02-12T19:34:32.797Z,2.53
2024-02-12T19:39:36.302Z,2.10
2024-02-12T19:44:41.085Z,2.55
2024-02-12T19:54:47.631Z,3.15
2024-02-12T19:59:52.519Z,2.40
2024-02-12T20:04:56.174Z,2.63
2024-02-12T20:09:59.570Z,2.40
2024-02-12T20:15:05.664Z,2.80
2024-02-12T20:20:10.089Z,2.63
2024-02-12T20:25:13.732Z,2.97
2024-02-12T20:30:22.241Z,2.85
2024-02-12T20:35:25.899Z,4.18
2024-02-12T20:40:29.338Z,4.15
2024-02-12T20:45:34.644Z,3.10
2024-02-12T20:50:38.147Z,3.40
2024-02-12T20:55:41.474Z,3.20
2024-02-12T21:00:47.150Z,3.25
2024-02-12T21:05:50.786Z,4.15
2024-02-12T21:10:54.360Z,4.57
2024-02-12T21:15:59.332Z,3.75
2024-02-12T21:21:03.026Z,3.80
2024-02-12T21:26:08.120Z,3.90
2024-02-12T21:31:12.969Z,3.75
2024-02-12T21:36:17.400Z,3.92
2024-02-12T21:41:34.512Z,3.80
2024-02-12T21:46:42.139Z,3.92
2024-02-12T21:51:46.085Z,3.60
2024-02-12T21:56:50.241Z,3.38
2024-02-12T22:01:55.282Z,5.40
2024-02-12T22:12:01.783Z,4.05
2024-02-12T22:17:07.296Z,3.67
2024-02-12T22:22:10.689Z,3.42
2024-02-12T22:27:14.036Z,3.72
2024-02-12T22:32:18.852Z,4.20
2024-02-12T22:42:25.248Z,3.65
2024-02-12T22:47:30.099Z,3.67
2024-02-12T22:57:36.494Z,3.60
2024-02-12T23:02:42.203Z,4.57
2024-02-12T23:07:46.008Z,4.47
2024-02-12T23:12:49.766Z,4.55
2024-02-12T23:17:54.602Z,3.72
2024-02-12T23:28:03.029Z,3.85
2024-02-12T23:38:14.875Z,3.22
2024-02-12T23:43:18.264Z,3.60
2024-02-12T23:48:23.608Z,3.85
2024-02-12T23:53:27.725Z,4.53
2024-02-12T23:58:31.779Z,4.17
